Flight Track Log - Related Links

Times and Time Zones

All times are in EDT time to prevent confusion due to time zone crossing. See the ASQ5750 flight status page for this flight to view local times or setup timezone preferences in your user account.

Time Position Orientation Groundspeed Altitude Reporting Facility
EDT Latitude Longitude Course Direction KTS MPH feet Rate Location/Type
Tue 10:50:13 AM 39.0500 -84.7000 345° North 162 186 1,800  Level Cincinnati TRACON
Tue 10:51:07 AM 39.0500 -84.7500 270° West 191 220 3,300 2,421 Climbing Cincinnati TRACON
Tue 10:52:07 AM 39.0500 -84.8333 270° West 258 297 6,400 2,868 Climbing Cincinnati TRACON
Tue 10:53:00 AM 38.9076 -84.7839 313° West  Level FlightAware Approximate
Tue 10:53:23 AM 39.1092 -84.9136 314° West 287 330 9,800  Level Indianapolis Center
Tue 10:54:00 AM 38.9534 -84.8480 313° West  Level FlightAware Approximate
Tue 10:54:25 AM 39.1883 -84.9319 350° North 307 353 11,400  Level Indianapolis Center
Tue 10:55:00 AM 39.0131 -84.8821 345° North  Level FlightAware Approximate
Tue 10:55:27 AM 39.2853 -84.9525 351° North 342 394 14,600  Level Indianapolis Center
Tue 10:56:29 AM 39.3694 -84.9728 349° North 310 357 17,200 2,341 Climbing Indianapolis Center
Tue 10:57:30 AM 39.4669 -85.0272 337° Northwest 320 368 19,400 1,951 Climbing Indianapolis Center
Tue 10:58:32 AM 39.5506 -85.0794 334° Northwest 328 377 21,200 1,258 Climbing Indianapolis Center
Tue 10:59:34 AM 39.6344 -85.1306 335° Northwest 329 379 22,000 390 Climbing Indianapolis Center
Tue 11:00:35 AM 39.7200 -85.1861 333° Northwest 335 386 22,000  Level Indianapolis Center
Tue 11:01:37 AM 39.8144 -85.2461 334° Northwest 358 412 22,000  Level Indianapolis Center
Tue 11:02:39 AM 39.9156 -85.3086 335° Northwest 382 440 22,000  Level Indianapolis Center
Tue 11:03:41 AM 40.0186 -85.3742 334° Northwest 400 460 22,000 -293 Level Indianapolis Center
Tue 11:04:42 AM 40.1206 -85.4392 334° Northwest 404 465 21,400 -1,610 Descending Indianapolis Center
Tue 11:05:44 AM 40.2217 -85.5039 334° Northwest 401 461 18,700 -1,645 Descending Indianapolis Center
Tue 11:06:46 AM 40.3386 -85.5775 334° Northwest 397 457 18,000 -339 Descending Indianapolis Center
Tue 11:07:48 AM 40.4353 -85.6403 334° Northwest 389 448 18,000  Level Indianapolis Center
Tue 11:09:00 AM 40.5578 -85.7028 339° North 393 452 18,000  Level Chicago Center
Tue 11:10:02 AM 40.6619 -85.7431 344° North 391 450 18,000  Level Chicago Center
Tue 11:11:03 AM 40.7603 -85.7978 337° Northwest 388 447 18,000  Level Chicago Center
Tue 11:12:05 AM 40.8147 -85.9172 301° West 374 430 18,000  Level Chicago Center
Tue 11:13:06 AM 40.8689 -86.0394 300° West 383 441 18,000  Level Chicago Center
Tue 11:14:08 AM 40.9222 -86.1619 300° West 385 443 18,000  Level Chicago Center
Tue 11:15:10 AM 40.9753 -86.2847 300° West 384 442 18,000  Level Chicago Center
Tue 11:16:11 AM 41.0286 -86.4081 300° West 384 442 18,000  Level Chicago Center
Tue 11:17:13 AM 41.0939 -86.5592 300° West 392 451 18,000 -435 Level Chicago Center
Tue 11:18:15 AM 41.1492 -86.6886 300° West 398 458 17,100 -439 Descending Chicago Center
Tue 11:19:16 AM 41.2008 -86.8069 300° West 384 442 17,100 -878 Level Chicago Center
Tue 11:20:18 AM 41.2508 -86.9253 299° West 373 429 15,300 -1,790 Descending Chicago Center
Tue 11:21:20 AM 41.2978 -87.0369 299° West 357 411 13,400 -1,902 Descending Chicago Center
Tue 11:22:21 AM 41.3439 -87.1444 300° West 341 392 11,400 -1,171 Descending Chicago Center
Tue 11:23:23 AM 41.4219 -87.2600 312° West 357 411 11,000 -296 Descending Chicago Center
Tue 11:23:42 AM 41.4500 -87.2833 328° Northwest 357 411 11,000  Level Chicago TRACON
Tue 11:24:42 AM 41.5167 -87.3833 312° West 353 406 11,000 -571 Level Chicago TRACON
Tue 11:25:27 AM 41.5686 -87.4319 325° Northwest 352 405 10,000 -623 Descending Chicago Center
Tue 11:26:28 AM 41.6436 -87.5131 321° Northwest 351 404 9,900 -878 Descending Chicago Center
Tue 11:27:30 AM 41.7047 -87.5825 320° Northwest 297 342 8,200 -1,403 Descending Chicago Center
Tue 11:28:32 AM 41.7767 -87.6633 320° Northwest 285 328 7,000 -581 Descending Chicago Center
Tue 11:29:34 AM 41.8406 -87.7214 326° Northwest 285 328 7,000 -98 Level Chicago Center
Tue 11:30:35 AM 41.9242 -87.7178 North 301 346 6,800 -1,073 Descending Chicago Center
Tue 11:31:37 AM 42.0047 -87.7169 360° North 295 339 4,800 -1,887 Descending Chicago Center
Tue 11:32:39 AM 42.0419 -87.7758 310° West 251 289 2,900 -1,839 Descending Chicago Center

Login

Don't have an account? Register now (free) for customized features, flight alerts, and more!